sensor_id;sensor_type;location;lat;lon;timestamp;P1;durP1;ratioP1;P2;durP2;ratioP2
76475;SDS011;65308;50.078;14.854;2023-05-15T00:01:01;12.10;;;9.02;;
76475;SDS011;65308;50.078;14.854;2023-05-15T00:03:28;13.63;;;8.32;;
76475;SDS011;65308;50.078;14.854;2023-05-15T00:05:55;12.23;;;8.13;;
76475;SDS011;65308;50.078;14.854;2023-05-15T00:08:21;13.38;;;8.60;;
76475;SDS011;65308;50.078;14.854;2023-05-15T00:10:48;12.40;;;8.77;;
76475;SDS011;65308;50.078;14.854;2023-05-15T00:13:16;12.27;;;8.07;;
76475;SDS011;65308;50.078;14.854;2023-05-15T00:15:43;10.63;;;7.78;;
76475;SDS011;65308;50.078;14.854;2023-05-15T00:18:10;12.43;;;8.40;;
76475;SDS011;65308;50.078;14.854;2023-05-15T00:20:37;11.52;;;7.95;;
76475;SDS011;65308;50.078;14.854;2023-05-15T00:23:03;11.88;;;7.88;;
76475;SDS011;65308;50.078;14.854;2023-05-15T00:25:30;11.57;;;7.82;;
76475;SDS011;65308;50.078;14.854;2023-05-15T00:27:57;10.88;;;7.47;;
76475;SDS011;65308;50.078;14.854;2023-05-15T00:30:25;12.10;;;7.85;;
76475;SDS011;65308;50.078;14.854;2023-05-15T00:32:51;10.82;;;7.65;;
76475;SDS011;65308;50.078;14.854;2023-05-15T00:35:18;12.43;;;7.45;;
76475;SDS011;65308;50.078;14.854;2023-05-15T00:37:44;12.95;;;8.20;;
76475;SDS011;65308;50.078;14.854;2023-05-15T00:40:11;11.25;;;7.43;;
76475;SDS011;65308;50.078;14.854;2023-05-15T00:42:43;12.18;;;8.07;;
76475;SDS011;65308;50.078;14.854;2023-05-15T00:47:39;10.52;;;7.47;;
76475;SDS011;65308;50.078;14.854;2023-05-15T00:50:07;10.25;;;7.18;;
76475;SDS011;65308;50.078;14.854;2023-05-15T00:55:01;11.68;;;7.80;;
76475;SDS011;65308;50.078;14.854;2023-05-15T00:57:28;11.43;;;7.85;;
76475;SDS011;65308;50.078;14.854;2023-05-15T00:59:56;11.13;;;7.65;;
76475;SDS011;65308;50.078;14.854;2023-05-15T01:02:24;11.05;;;8.45;;
76475;SDS011;65308;50.078;14.854;2023-05-15T01:04:52;11.02;;;8.02;;
76475;SDS011;65308;50.078;14.854;2023-05-15T01:07:18;11.00;;;7.15;;
76475;SDS011;65308;50.078;14.854;2023-05-15T01:09:45;12.13;;;7.85;;
76475;SDS011;65308;50.078;14.854;2023-05-15T01:12:13;10.18;;;7.65;;
76475;SDS011;65308;50.078;14.854;2023-05-15T01:17:07;8.73;;;6.03;;
76475;SDS011;65308;50.078;14.854;2023-05-15T01:19:34;10.13;;;7.03;;
76475;SDS011;65308;50.078;14.854;2023-05-15T01:22:11;10.38;;;7.03;;
76475;SDS011;65308;50.078;14.854;2023-05-15T01:24:58;9.48;;;6.63;;
76475;SDS011;65308;50.078;14.854;2023-05-15T01:27:41;8.88;;;7.00;;
76475;SDS011;65308;50.078;14.854;2023-05-15T01:30:11;10.13;;;7.90;;
76475;SDS011;65308;50.078;14.854;2023-05-15T01:32:45;11.52;;;7.20;;
76475;SDS011;65308;50.078;14.854;2023-05-15T01:37:47;10.35;;;7.82;;
76475;SDS011;65308;50.078;14.854;2023-05-15T01:40:19;9.48;;;7.40;;
76475;SDS011;65308;50.078;14.854;2023-05-15T01:42:53;9.00;;;6.40;;
76475;SDS011;65308;50.078;14.854;2023-05-15T01:45:22;9.73;;;6.78;;
76475;SDS011;65308;50.078;14.854;2023-05-15T01:47:49;9.25;;;6.45;;
76475;SDS011;65308;50.078;14.854;2023-05-15T01:50:19;8.45;;;6.50;;
76475;SDS011;65308;50.078;14.854;2023-05-15T01:52:48;9.43;;;6.28;;
76475;SDS011;65308;50.078;14.854;2023-05-15T01:55:17;8.68;;;6.28;;
76475;SDS011;65308;50.078;14.854;2023-05-15T02:00:13;9.13;;;5.95;;
76475;SDS011;65308;50.078;14.854;2023-05-15T02:02:41;9.93;;;6.68;;
76475;SDS011;65308;50.078;14.854;2023-05-15T02:05:09;10.23;;;6.38;;
76475;SDS011;65308;50.078;14.854;2023-05-15T02:07:36;8.50;;;6.28;;
76475;SDS011;65308;50.078;14.854;2023-05-15T02:10:03;9.55;;;6.50;;
76475;SDS011;65308;50.078;14.854;2023-05-15T02:12:30;9.75;;;6.78;;
76475;SDS011;65308;50.078;14.854;2023-05-15T02:14:57;7.80;;;5.57;;
76475;SDS011;65308;50.078;14.854;2023-05-15T02:17:26;7.95;;;5.70;;
76475;SDS011;65308;50.078;14.854;2023-05-15T02:19:53;9.35;;;6.32;;
76475;SDS011;65308;50.078;14.854;2023-05-15T02:22:20;8.63;;;6.20;;
76475;SDS011;65308;50.078;14.854;2023-05-15T02:24:46;8.63;;;6.00;;
76475;SDS011;65308;50.078;14.854;2023-05-15T02:27:16;9.43;;;6.05;;
76475;SDS011;65308;50.078;14.854;2023-05-15T02:29:52;7.95;;;5.95;;
76475;SDS011;65308;50.078;14.854;2023-05-15T02:32:40;10.70;;;6.10;;
76475;SDS011;65308;50.078;14.854;2023-05-15T02:35:13;8.40;;;5.93;;
76475;SDS011;65308;50.078;14.854;2023-05-15T02:37:47;8.48;;;5.63;;
76475;SDS011;65308;50.078;14.854;2023-05-15T02:40:17;7.82;;;5.45;;
76475;SDS011;65308;50.078;14.854;2023-05-15T02:42:45;7.82;;;5.38;;
76475;SDS011;65308;50.078;14.854;2023-05-15T02:45:13;7.57;;;5.97;;
76475;SDS011;65308;50.078;14.854;2023-05-15T02:47:41;7.78;;;5.43;;
76475;SDS011;65308;50.078;14.854;2023-05-15T02:50:08;7.70;;;5.53;;
76475;SDS011;65308;50.078;14.854;2023-05-15T02:52:36;8.82;;;5.40;;
76475;SDS011;65308;50.078;14.854;2023-05-15T02:55:02;7.72;;;5.47;;
76475;SDS011;65308;50.078;14.854;2023-05-15T02:57:30;9.48;;;5.75;;
76475;SDS011;65308;50.078;14.854;2023-05-15T02:59:56;9.23;;;5.85;;
76475;SDS011;65308;50.078;14.854;2023-05-15T03:02:23;7.60;;;5.68;;
76475;SDS011;65308;50.078;14.854;2023-05-15T03:04:52;9.38;;;6.30;;
76475;SDS011;65308;50.078;14.854;2023-05-15T03:07:19;10.52;;;6.30;;
76475;SDS011;65308;50.078;14.854;2023-05-15T03:09:45;9.10;;;5.78;;
76475;SDS011;65308;50.078;14.854;2023-05-15T03:12:13;8.27;;;5.85;;
76475;SDS011;65308;50.078;14.854;2023-05-15T03:14:40;8.57;;;6.05;;
76475;SDS011;65308;50.078;14.854;2023-05-15T03:17:07;8.52;;;5.55;;
76475;SDS011;65308;50.078;14.854;2023-05-15T03:19:33;9.30;;;6.35;;
76475;SDS011;65308;50.078;14.854;2023-05-15T03:22:01;9.85;;;5.90;;
76475;SDS011;65308;50.078;14.854;2023-05-15T03:24:31;8.07;;;5.88;;
76475;SDS011;65308;50.078;14.854;2023-05-15T03:27:01;8.30;;;6.18;;
76475;SDS011;65308;50.078;14.854;2023-05-15T03:29:28;8.07;;;5.72;;
76475;SDS011;65308;50.078;14.854;2023-05-15T03:31:54;9.73;;;6.43;;
76475;SDS011;65308;50.078;14.854;2023-05-15T03:34:21;8.23;;;6.07;;
76475;SDS011;65308;50.078;14.854;2023-05-15T03:36:47;9.40;;;6.10;;
76475;SDS011;65308;50.078;14.854;2023-05-15T03:39:15;9.73;;;6.22;;
76475;SDS011;65308;50.078;14.854;2023-05-15T03:41:42;8.82;;;5.82;;
76475;SDS011;65308;50.078;14.854;2023-05-15T03:44:08;8.65;;;5.72;;
76475;SDS011;65308;50.078;14.854;2023-05-15T03:46:35;8.43;;;6.15;;
76475;SDS011;65308;50.078;14.854;2023-05-15T03:49:01;11.02;;;6.40;;
76475;SDS011;65308;50.078;14.854;2023-05-15T03:51:28;9.98;;;6.00;;
76475;SDS011;65308;50.078;14.854;2023-05-15T03:53:55;8.30;;;5.00;;
76475;SDS011;65308;50.078;14.854;2023-05-15T03:56:23;7.43;;;4.80;;
76475;SDS011;65308;50.078;14.854;2023-05-15T03:58:50;6.97;;;5.10;;
76475;SDS011;65308;50.078;14.854;2023-05-15T04:01:16;7.22;;;5.00;;
76475;SDS011;65308;50.078;14.854;2023-05-15T04:03:43;9.40;;;6.32;;
76475;SDS011;65308;50.078;14.854;2023-05-15T04:06:09;9.07;;;6.45;;
76475;SDS011;65308;50.078;14.854;2023-05-15T04:08:36;10.43;;;6.18;;
76475;SDS011;65308;50.078;14.854;2023-05-15T04:11:02;9.13;;;7.05;;
76475;SDS011;65308;50.078;14.854;2023-05-15T04:13:31;8.80;;;6.65;;
76475;SDS011;65308;50.078;14.854;2023-05-15T04:15:57;8.32;;;5.97;;
76475;SDS011;65308;50.078;14.854;2023-05-15T04:18:25;8.60;;;5.70;;
76475;SDS011;65308;50.078;14.854;2023-05-15T04:20:51;8.68;;;6.20;;
76475;SDS011;65308;50.078;14.854;2023-05-15T04:23:18;8.98;;;6.22;;
76475;SDS011;65308;50.078;14.854;2023-05-15T04:25:45;9.15;;;6.15;;
76475;SDS011;65308;50.078;14.854;2023-05-15T04:28:13;9.90;;;6.40;;
76475;SDS011;65308;50.078;14.854;2023-05-15T04:30:43;8.65;;;6.45;;
76475;SDS011;65308;50.078;14.854;2023-05-15T04:33:10;8.45;;;6.38;;
76475;SDS011;65308;50.078;14.854;2023-05-15T04:35:36;8.63;;;6.22;;
76475;SDS011;65308;50.078;14.854;2023-05-15T04:38:03;8.75;;;6.40;;
76475;SDS011;65308;50.078;14.854;2023-05-15T04:40:32;9.25;;;6.20;;
76475;SDS011;65308;50.078;14.854;2023-05-15T04:43:08;8.40;;;5.85;;
76475;SDS011;65308;50.078;14.854;2023-05-15T04:45:35;9.68;;;6.65;;
76475;SDS011;65308;50.078;14.854;2023-05-15T04:48:03;9.82;;;6.93;;
76475;SDS011;65308;50.078;14.854;2023-05-15T04:50:30;9.30;;;6.65;;
76475;SDS011;65308;50.078;14.854;2023-05-15T04:52:57;8.77;;;6.40;;
76475;SDS011;65308;50.078;14.854;2023-05-15T04:55:24;7.47;;;5.85;;
76475;SDS011;65308;50.078;14.854;2023-05-15T04:57:55;7.55;;;5.97;;
76475;SDS011;65308;50.078;14.854;2023-05-15T05:00:28;8.20;;;6.00;;
76475;SDS011;65308;50.078;14.854;2023-05-15T05:02:56;8.73;;;6.03;;
76475;SDS011;65308;50.078;14.854;2023-05-15T05:05:27;7.70;;;5.78;;
76475;SDS011;65308;50.078;14.854;2023-05-15T05:07:54;7.93;;;6.00;;
76475;SDS011;65308;50.078;14.854;2023-05-15T05:10:21;10.18;;;6.97;;
76475;SDS011;65308;50.078;14.854;2023-05-15T05:12:47;9.13;;;6.63;;
76475;SDS011;65308;50.078;14.854;2023-05-15T05:15:14;8.63;;;6.70;;
76475;SDS011;65308;50.078;14.854;2023-05-15T05:17:41;9.30;;;6.50;;
76475;SDS011;65308;50.078;14.854;2023-05-15T05:20:08;8.30;;;6.10;;
76475;SDS011;65308;50.078;14.854;2023-05-15T05:22:36;9.90;;;6.63;;
76475;SDS011;65308;50.078;14.854;2023-05-15T05:25:04;8.50;;;6.20;;
76475;SDS011;65308;50.078;14.854;2023-05-15T05:27:32;9.05;;;6.38;;
76475;SDS011;65308;50.078;14.854;2023-05-15T05:29:58;7.72;;;5.80;;
76475;SDS011;65308;50.078;14.854;2023-05-15T05:32:25;7.82;;;6.32;;
76475;SDS011;65308;50.078;14.854;2023-05-15T05:34:51;8.02;;;6.07;;
76475;SDS011;65308;50.078;14.854;2023-05-15T05:37:18;9.32;;;6.15;;
76475;SDS011;65308;50.078;14.854;2023-05-15T05:39:46;8.32;;;6.43;;
76475;SDS011;65308;50.078;14.854;2023-05-15T05:42:13;8.40;;;6.35;;
76475;SDS011;65308;50.078;14.854;2023-05-15T05:44:39;9.50;;;6.25;;
76475;SDS011;65308;50.078;14.854;2023-05-15T05:47:06;8.75;;;6.18;;
76475;SDS011;65308;50.078;14.854;2023-05-15T05:49:32;9.68;;;6.25;;
76475;SDS011;65308;50.078;14.854;2023-05-15T05:52:03;8.20;;;6.18;;
76475;SDS011;65308;50.078;14.854;2023-05-15T05:54:32;7.82;;;6.50;;
76475;SDS011;65308;50.078;14.854;2023-05-15T05:56:59;8.88;;;6.90;;
76475;SDS011;65308;50.078;14.854;2023-05-15T05:59:26;8.38;;;6.63;;
76475;SDS011;65308;50.078;14.854;2023-05-15T06:01:53;7.90;;;5.80;;
76475;SDS011;65308;50.078;14.854;2023-05-15T06:04:20;8.55;;;6.45;;
76475;SDS011;65308;50.078;14.854;2023-05-15T06:06:47;7.32;;;5.50;;
76475;SDS011;65308;50.078;14.854;2023-05-15T06:09:14;8.68;;;6.28;;
76475;SDS011;65308;50.078;14.854;2023-05-15T06:11:40;8.30;;;6.50;;
76475;SDS011;65308;50.078;14.854;2023-05-15T06:14:08;7.68;;;5.78;;
76475;SDS011;65308;50.078;14.854;2023-05-15T06:16:35;7.78;;;6.07;;
76475;SDS011;65308;50.078;14.854;2023-05-15T06:19:02;7.22;;;5.68;;
76475;SDS011;65308;50.078;14.854;2023-05-15T06:21:28;8.02;;;6.00;;
76475;SDS011;65308;50.078;14.854;2023-05-15T06:23:55;8.23;;;6.07;;
76475;SDS011;65308;50.078;14.854;2023-05-15T06:28:50;8.68;;;6.00;;
76475;SDS011;65308;50.078;14.854;2023-05-15T06:31:18;7.78;;;5.97;;
76475;SDS011;65308;50.078;14.854;2023-05-15T06:33:44;7.22;;;5.72;;
76475;SDS011;65308;50.078;14.854;2023-05-15T06:36:11;8.95;;;6.20;;
76475;SDS011;65308;50.078;14.854;2023-05-15T06:38:37;8.13;;;6.40;;
76475;SDS011;65308;50.078;14.854;2023-05-15T06:41:04;8.40;;;6.07;;
76475;SDS011;65308;50.078;14.854;2023-05-15T06:43:31;9.55;;;7.25;;
76475;SDS011;65308;50.078;14.854;2023-05-15T06:45:58;9.00;;;6.63;;
76475;SDS011;65308;50.078;14.854;2023-05-15T06:48:26;9.00;;;7.25;;
76475;SDS011;65308;50.078;14.854;2023-05-15T06:50:52;8.27;;;6.07;;
76475;SDS011;65308;50.078;14.854;2023-05-15T06:53:19;8.95;;;6.30;;
76475;SDS011;65308;50.078;14.854;2023-05-15T06:55:46;8.95;;;6.18;;
76475;SDS011;65308;50.078;14.854;2023-05-15T06:58:12;8.77;;;6.53;;
76475;SDS011;65308;50.078;14.854;2023-05-15T07:00:41;8.80;;;6.57;;
76475;SDS011;65308;50.078;14.854;2023-05-15T07:03:08;7.78;;;6.70;;
76475;SDS011;65308;50.078;14.854;2023-05-15T07:05:36;8.00;;;6.05;;
76475;SDS011;65308;50.078;14.854;2023-05-15T07:08:03;8.20;;;5.80;;
76475;SDS011;65308;50.078;14.854;2023-05-15T07:10:30;7.45;;;6.07;;
76475;SDS011;65308;50.078;14.854;2023-05-15T07:12:57;8.27;;;5.82;;
76475;SDS011;65308;50.078;14.854;2023-05-15T07:15:24;7.88;;;5.80;;
76475;SDS011;65308;50.078;14.854;2023-05-15T07:17:50;8.52;;;6.07;;
76475;SDS011;65308;50.078;14.854;2023-05-15T07:20:18;8.05;;;6.28;;
76475;SDS011;65308;50.078;14.854;2023-05-15T07:22:46;8.00;;;6.15;;
76475;SDS011;65308;50.078;14.854;2023-05-15T07:25:13;7.78;;;5.80;;
76475;SDS011;65308;50.078;14.854;2023-05-15T07:27:40;7.00;;;5.78;;
76475;SDS011;65308;50.078;14.854;2023-05-15T07:30:07;7.63;;;6.07;;
76475;SDS011;65308;50.078;14.854;2023-05-15T07:35:01;8.35;;;6.10;;
76475;SDS011;65308;50.078;14.854;2023-05-15T07:37:29;6.97;;;5.63;;
76475;SDS011;65308;50.078;14.854;2023-05-15T07:39:57;7.07;;;5.65;;
76475;SDS011;65308;50.078;14.854;2023-05-15T07:42:23;8.15;;;6.00;;
76475;SDS011;65308;50.078;14.854;2023-05-15T07:44:50;7.15;;;5.63;;
76475;SDS011;65308;50.078;14.854;2023-05-15T07:47:17;8.30;;;6.10;;
76475;SDS011;65308;50.078;14.854;2023-05-15T07:49:44;7.05;;;5.60;;
76475;SDS011;65308;50.078;14.854;2023-05-15T07:52:10;7.85;;;5.60;;
76475;SDS011;65308;50.078;14.854;2023-05-15T07:54:38;7.75;;;6.60;;
76475;SDS011;65308;50.078;14.854;2023-05-15T07:57:07;8.20;;;6.20;;
76475;SDS011;65308;50.078;14.854;2023-05-15T07:59:34;7.72;;;6.15;;
76475;SDS011;65308;50.078;14.854;2023-05-15T08:02:01;7.53;;;6.25;;
76475;SDS011;65308;50.078;14.854;2023-05-15T08:04:28;7.20;;;5.47;;
76475;SDS011;65308;50.078;14.854;2023-05-15T08:06:55;8.38;;;6.38;;
76475;SDS011;65308;50.078;14.854;2023-05-15T08:09:22;7.30;;;5.60;;
76475;SDS011;65308;50.078;14.854;2023-05-15T08:11:49;8.23;;;6.10;;
76475;SDS011;65308;50.078;14.854;2023-05-15T08:14:17;7.70;;;5.50;;
76475;SDS011;65308;50.078;14.854;2023-05-15T08:16:44;7.13;;;5.43;;
76475;SDS011;65308;50.078;14.854;2023-05-15T08:19:11;7.15;;;5.55;;
76475;SDS011;65308;50.078;14.854;2023-05-15T08:21:37;7.22;;;5.95;;
76475;SDS011;65308;50.078;14.854;2023-05-15T08:24:05;7.05;;;5.43;;
76475;SDS011;65308;50.078;14.854;2023-05-15T08:26:32;8.73;;;5.85;;
76475;SDS011;65308;50.078;14.854;2023-05-15T08:28:58;6.13;;;4.97;;
76475;SDS011;65308;50.078;14.854;2023-05-15T08:31:26;7.65;;;5.90;;
76475;SDS011;65308;50.078;14.854;2023-05-15T08:33:53;6.82;;;5.63;;
76475;SDS011;65308;50.078;14.854;2023-05-15T08:36:20;6.53;;;5.63;;
76475;SDS011;65308;50.078;14.854;2023-05-15T08:38:46;6.60;;;5.20;;
76475;SDS011;65308;50.078;14.854;2023-05-15T08:41:15;7.18;;;5.53;;
76475;SDS011;65308;50.078;14.854;2023-05-15T08:43:50;7.47;;;5.40;;
76475;SDS011;65308;50.078;14.854;2023-05-15T08:46:21;6.75;;;5.63;;
76475;SDS011;65308;50.078;14.854;2023-05-15T08:48:50;7.35;;;5.95;;
76475;SDS011;65308;50.078;14.854;2023-05-15T08:51:18;7.55;;;5.82;;
76475;SDS011;65308;50.078;14.854;2023-05-15T08:53:46;6.78;;;5.60;;
76475;SDS011;65308;50.078;14.854;2023-05-15T08:56:13;7.82;;;5.78;;
76475;SDS011;65308;50.078;14.854;2023-05-15T08:58:41;6.43;;;5.32;;
76475;SDS011;65308;50.078;14.854;2023-05-15T09:01:08;6.95;;;5.32;;
76475;SDS011;65308;50.078;14.854;2023-05-15T09:03:37;6.85;;;5.72;;
76475;SDS011;65308;50.078;14.854;2023-05-15T09:06:05;7.28;;;5.82;;
76475;SDS011;65308;50.078;14.854;2023-05-15T09:08:34;6.95;;;5.65;;
76475;SDS011;65308;50.078;14.854;2023-05-15T09:11:01;7.35;;;5.72;;
76475;SDS011;65308;50.078;14.854;2023-05-15T09:13:29;6.82;;;5.88;;
76475;SDS011;65308;50.078;14.854;2023-05-15T09:15:55;6.63;;;5.40;;
76475;SDS011;65308;50.078;14.854;2023-05-15T09:18:22;6.70;;;5.70;;
76475;SDS011;65308;50.078;14.854;2023-05-15T09:20:50;7.28;;;6.00;;
76475;SDS011;65308;50.078;14.854;2023-05-15T09:23:25;6.43;;;5.38;;
76475;SDS011;65308;50.078;14.854;2023-05-15T09:25:53;7.07;;;5.53;;
76475;SDS011;65308;50.078;14.854;2023-05-15T09:28:24;7.28;;;5.22;;
76475;SDS011;65308;50.078;14.854;2023-05-15T09:30:56;7.65;;;6.07;;
76475;SDS011;65308;50.078;14.854;2023-05-15T09:33:30;6.43;;;5.32;;
76475;SDS011;65308;50.078;14.854;2023-05-15T09:35:57;7.25;;;5.57;;
76475;SDS011;65308;50.078;14.854;2023-05-15T09:38:26;8.95;;;5.60;;
76475;SDS011;65308;50.078;14.854;2023-05-15T09:40:59;6.10;;;5.10;;
76475;SDS011;65308;50.078;14.854;2023-05-15T09:43:28;7.72;;;5.10;;
76475;SDS011;65308;50.078;14.854;2023-05-15T09:45:55;8.02;;;5.45;;
76475;SDS011;65308;50.078;14.854;2023-05-15T09:48:22;6.25;;;5.20;;
76475;SDS011;65308;50.078;14.854;2023-05-15T09:50:49;6.55;;;5.38;;
76475;SDS011;65308;50.078;14.854;2023-05-15T09:53:15;7.20;;;5.78;;
76475;SDS011;65308;50.078;14.854;2023-05-15T09:55:44;7.63;;;5.55;;
76475;SDS011;65308;50.078;14.854;2023-05-15T09:58:13;7.60;;;5.78;;
76475;SDS011;65308;50.078;14.854;2023-05-15T10:00:41;6.53;;;5.28;;
76475;SDS011;65308;50.078;14.854;2023-05-15T10:03:08;6.82;;;4.57;;
76475;SDS011;65308;50.078;14.854;2023-05-15T10:05:37;6.28;;;5.32;;
76475;SDS011;65308;50.078;14.854;2023-05-15T10:08:04;6.55;;;4.93;;
76475;SDS011;65308;50.078;14.854;2023-05-15T10:10:31;5.45;;;4.75;;
76475;SDS011;65308;50.078;14.854;2023-05-15T10:12:59;5.38;;;4.25;;
76475;SDS011;65308;50.078;14.854;2023-05-15T10:15:28;5.57;;;4.18;;
76475;SDS011;65308;50.078;14.854;2023-05-15T10:17:55;6.85;;;5.07;;
76475;SDS011;65308;50.078;14.854;2023-05-15T10:20:23;5.80;;;4.75;;
76475;SDS011;65308;50.078;14.854;2023-05-15T10:22:50;6.43;;;5.22;;
76475;SDS011;65308;50.078;14.854;2023-05-15T10:25:22;6.63;;;5.22;;
76475;SDS011;65308;50.078;14.854;2023-05-15T10:27:53;6.10;;;4.60;;
76475;SDS011;65308;50.078;14.854;2023-05-15T10:30:21;5.82;;;4.60;;
76475;SDS011;65308;50.078;14.854;2023-05-15T10:32:50;5.65;;;4.53;;
76475;SDS011;65308;50.078;14.854;2023-05-15T10:35:17;5.35;;;3.70;;
76475;SDS011;65308;50.078;14.854;2023-05-15T10:37:44;5.53;;;4.70;;
76475;SDS011;65308;50.078;14.854;2023-05-15T10:40:13;5.57;;;4.38;;
76475;SDS011;65308;50.078;14.854;2023-05-15T10:42:41;6.35;;;4.38;;
76475;SDS011;65308;50.078;14.854;2023-05-15T10:45:10;6.47;;;4.88;;
76475;SDS011;65308;50.078;14.854;2023-05-15T10:47:38;5.68;;;4.55;;
76475;SDS011;65308;50.078;14.854;2023-05-15T10:50:07;5.32;;;4.68;;
76475;SDS011;65308;50.078;14.854;2023-05-15T10:52:35;6.63;;;4.70;;
76475;SDS011;65308;50.078;14.854;2023-05-15T10:55:05;5.07;;;4.38;;
76475;SDS011;65308;50.078;14.854;2023-05-15T10:57:32;5.43;;;4.50;;
76475;SDS011;65308;50.078;14.854;2023-05-15T11:00:00;5.95;;;4.53;;
76475;SDS011;65308;50.078;14.854;2023-05-15T11:02:29;5.95;;;4.88;;
76475;SDS011;65308;50.078;14.854;2023-05-15T11:05:00;5.80;;;4.65;;
76475;SDS011;65308;50.078;14.854;2023-05-15T11:07:30;5.80;;;4.50;;
76475;SDS011;65308;50.078;14.854;2023-05-15T11:09:57;5.35;;;4.22;;
76475;SDS011;65308;50.078;14.854;2023-05-15T11:12:23;5.75;;;4.60;;
76475;SDS011;65308;50.078;14.854;2023-05-15T11:18:00;4.97;;;4.05;;
76475;SDS011;65308;50.078;14.854;2023-05-15T11:20:33;5.25;;;4.25;;
76475;SDS011;65308;50.078;14.854;2023-05-15T11:23:03;5.18;;;4.00;;
76475;SDS011;65308;50.078;14.854;2023-05-15T11:25:30;5.88;;;4.80;;
76475;SDS011;65308;50.078;14.854;2023-05-15T11:27:57;7.55;;;5.20;;
76475;SDS011;65308;50.078;14.854;2023-05-15T11:30:34;5.30;;;4.43;;
76475;SDS011;65308;50.078;14.854;2023-05-15T11:33:03;5.68;;;4.43;;
76475;SDS011;65308;50.078;14.854;2023-05-15T11:35:34;5.75;;;4.28;;
76475;SDS011;65308;50.078;14.854;2023-05-15T11:38:04;5.30;;;4.30;;
76475;SDS011;65308;50.078;14.854;2023-05-15T11:40:47;5.50;;;4.47;;
76475;SDS011;65308;50.078;14.854;2023-05-15T11:43:17;4.75;;;4.15;;
76475;SDS011;65308;50.078;14.854;2023-05-15T11:45:45;5.50;;;4.85;;
76475;SDS011;65308;50.078;14.854;2023-05-15T11:48:14;5.75;;;4.63;;
76475;SDS011;65308;50.078;14.854;2023-05-15T11:50:43;5.97;;;4.88;;
76475;SDS011;65308;50.078;14.854;2023-05-15T11:53:11;4.90;;;4.40;;
76475;SDS011;65308;50.078;14.854;2023-05-15T11:55:39;5.50;;;4.63;;
76475;SDS011;65308;50.078;14.854;2023-05-15T11:58:09;5.15;;;4.45;;
76475;SDS011;65308;50.078;14.854;2023-05-15T12:00:37;5.30;;;4.00;;
76475;SDS011;65308;50.078;14.854;2023-05-15T12:03:04;6.63;;;4.32;;
76475;SDS011;65308;50.078;14.854;2023-05-15T12:05:31;6.90;;;4.10;;
76475;SDS011;65308;50.078;14.854;2023-05-15T12:07:59;5.25;;;3.97;;
76475;SDS011;65308;50.078;14.854;2023-05-15T12:10:26;4.43;;;3.72;;
76475;SDS011;65308;50.078;14.854;2023-05-15T12:12:53;4.20;;;3.63;;
76475;SDS011;65308;50.078;14.854;2023-05-15T12:15:19;5.40;;;3.58;;
76475;SDS011;65308;50.078;14.854;2023-05-15T12:17:46;5.05;;;4.10;;
76475;SDS011;65308;50.078;14.854;2023-05-15T12:20:15;4.63;;;3.80;;
76475;SDS011;65308;50.078;14.854;2023-05-15T12:22:43;5.28;;;4.20;;
76475;SDS011;65308;50.078;14.854;2023-05-15T12:25:13;7.80;;;4.72;;
76475;SDS011;65308;50.078;14.854;2023-05-15T12:27:40;4.70;;;3.55;;
76475;SDS011;65308;50.078;14.854;2023-05-15T12:30:08;5.28;;;4.05;;
76475;SDS011;65308;50.078;14.854;2023-05-15T12:32:36;4.88;;;3.78;;
76475;SDS011;65308;50.078;14.854;2023-05-15T12:35:06;7.53;;;4.47;;
76475;SDS011;65308;50.078;14.854;2023-05-15T12:37:35;5.07;;;4.57;;
76475;SDS011;65308;50.078;14.854;2023-05-15T12:40:02;4.88;;;4.22;;
76475;SDS011;65308;50.078;14.854;2023-05-15T12:42:38;4.72;;;4.03;;
76475;SDS011;65308;50.078;14.854;2023-05-15T12:45:10;4.40;;;3.63;;
76475;SDS011;65308;50.078;14.854;2023-05-15T12:47:39;4.85;;;4.32;;
76475;SDS011;65308;50.078;14.854;2023-05-15T12:50:10;3.83;;;3.20;;
76475;SDS011;65308;50.078;14.854;2023-05-15T12:52:39;5.15;;;4.05;;
76475;SDS011;65308;50.078;14.854;2023-05-15T12:55:06;4.28;;;3.65;;
76475;SDS011;65308;50.078;14.854;2023-05-15T13:00:02;6.55;;;3.90;;
76475;SDS011;65308;50.078;14.854;2023-05-15T13:02:31;7.32;;;4.07;;
76475;SDS011;65308;50.078;14.854;2023-05-15T13:05:00;5.25;;;4.30;;
76475;SDS011;65308;50.078;14.854;2023-05-15T13:07:29;4.90;;;4.40;;
76475;SDS011;65308;50.078;14.854;2023-05-15T13:10:05;5.10;;;4.40;;
76475;SDS011;65308;50.078;14.854;2023-05-15T13:12:34;5.30;;;3.85;;
76475;SDS011;65308;50.078;14.854;2023-05-15T13:15:03;4.43;;;3.50;;
76475;SDS011;65308;50.078;14.854;2023-05-15T13:17:33;7.43;;;4.10;;
76475;SDS011;65308;50.078;14.854;2023-05-15T13:20:00;5.90;;;4.10;;
76475;SDS011;65308;50.078;14.854;2023-05-15T13:22:26;4.85;;;3.72;;
76475;SDS011;65308;50.078;14.854;2023-05-15T13:24:53;4.57;;;3.88;;
76475;SDS011;65308;50.078;14.854;2023-05-15T13:29:53;4.70;;;4.07;;
76475;SDS011;65308;50.078;14.854;2023-05-15T13:32:23;6.43;;;5.22;;
76475;SDS011;65308;50.078;14.854;2023-05-15T13:34:50;6.07;;;4.85;;
76475;SDS011;65308;50.078;14.854;2023-05-15T13:37:18;5.80;;;4.32;;
76475;SDS011;65308;50.078;14.854;2023-05-15T13:39:45;5.78;;;4.47;;
76475;SDS011;65308;50.078;14.854;2023-05-15T13:42:12;5.97;;;5.38;;
76475;SDS011;65308;50.078;14.854;2023-05-15T13:44:38;5.90;;;5.30;;
76475;SDS011;65308;50.078;14.854;2023-05-15T13:47:05;6.60;;;5.07;;
76475;SDS011;65308;50.078;14.854;2023-05-15T13:49:33;6.63;;;5.32;;
76475;SDS011;65308;50.078;14.854;2023-05-15T13:52:00;6.55;;;5.82;;
76475;SDS011;65308;50.078;14.854;2023-05-15T13:54:26;5.88;;;5.25;;
76475;SDS011;65308;50.078;14.854;2023-05-15T13:56:53;6.70;;;5.50;;
76475;SDS011;65308;50.078;14.854;2023-05-15T13:59:19;7.85;;;5.32;;
76475;SDS011;65308;50.078;14.854;2023-05-15T14:01:46;6.82;;;5.60;;
76475;SDS011;65308;50.078;14.854;2023-05-15T14:04:12;6.68;;;5.05;;
76475;SDS011;65308;50.078;14.854;2023-05-15T14:06:41;6.85;;;5.97;;
76475;SDS011;65308;50.078;14.854;2023-05-15T14:09:07;7.22;;;6.13;;
76475;SDS011;65308;50.078;14.854;2023-05-15T14:11:34;8.43;;;6.22;;
76475;SDS011;65308;50.078;14.854;2023-05-15T14:14:00;6.50;;;5.80;;
76475;SDS011;65308;50.078;14.854;2023-05-15T14:16:27;6.65;;;5.95;;
76475;SDS011;65308;50.078;14.854;2023-05-15T14:18:54;6.80;;;6.07;;
76475;SDS011;65308;50.078;14.854;2023-05-15T14:21:22;7.25;;;6.55;;
76475;SDS011;65308;50.078;14.854;2023-05-15T14:23:50;8.40;;;5.90;;
76475;SDS011;65308;50.078;14.854;2023-05-15T14:26:17;6.60;;;5.75;;
76475;SDS011;65308;50.078;14.854;2023-05-15T14:28:44;5.90;;;5.30;;
76475;SDS011;65308;50.078;14.854;2023-05-15T14:31:11;7.10;;;5.50;;
76475;SDS011;65308;50.078;14.854;2023-05-15T14:33:38;6.45;;;5.72;;
76475;SDS011;65308;50.078;14.854;2023-05-15T14:36:05;8.57;;;6.93;;
76475;SDS011;65308;50.078;14.854;2023-05-15T14:38:32;8.52;;;6.07;;
76475;SDS011;65308;50.078;14.854;2023-05-15T14:41:00;6.80;;;6.00;;
76475;SDS011;65308;50.078;14.854;2023-05-15T14:43:26;6.82;;;6.13;;
76475;SDS011;65308;50.078;14.854;2023-05-15T14:45:54;7.13;;;6.40;;
76475;SDS011;65308;50.078;14.854;2023-05-15T14:48:20;7.40;;;6.60;;
76475;SDS011;65308;50.078;14.854;2023-05-15T14:50:47;7.05;;;6.35;;
76475;SDS011;65308;50.078;14.854;2023-05-15T14:53:13;8.98;;;7.03;;
76475;SDS011;65308;50.078;14.854;2023-05-15T14:55:40;7.30;;;6.60;;
76475;SDS011;65308;50.078;14.854;2023-05-15T14:58:08;8.98;;;6.95;;
76475;SDS011;65308;50.078;14.854;2023-05-15T15:00:35;7.20;;;6.50;;
76475;SDS011;65308;50.078;14.854;2023-05-15T15:03:02;8.05;;;7.00;;